Time;durP1;ratioP1;P1;durP2;ratioP2;P2;SDS_P1;SDS_P2;PMS_P1;PMS_P2;Temp;Humidity;BMP_temperature;BMP_pressure;BME280_temperature;BME280_humidity;BME280_pressure;Samples;Min_cycle;Max_cycle;Signal;HPM_P1;HPM_P2
2023/03/11 00:01:11;;;;;;;12.30;7.40;;;;;;;9.82;96.98;99116.27;109950;1237;62984;-81
2023/03/11 00:03:40;;;;;;;11.70;7.60;;;;;;;9.80;96.97;99112.33;110031;1236;71289;-77
2023/03/11 00:06:09;;;;;;;10.00;7.30;;;;;;;9.75;96.38;99102.52;109874;1237;70805;-82
2023/03/11 00:08:38;;;;;;;12.60;7.40;;;;;;;9.68;96.33;99089.98;109887;1236;74167;-81
2023/03/11 00:11:06;;;;;;;11.40;7.70;;;;;;;9.69;95.59;99075.45;109887;1239;62490;-79
2023/03/11 00:13:35;;;;;;;10.30;7.20;;;;;;;9.63;95.79;99062.15;109926;1236;57256;-80
2023/03/11 00:16:05;;;;;;;12.20;7.30;;;;;;;9.57;96.49;99042.06;110062;1237;62147;-80
2023/03/11 00:18:34;;;;;;;11.60;7.60;;;;;;;9.57;97.20;99028.62;110023;1238;71613;-76
2023/03/11 00:21:03;;;;;;;11.70;8.40;;;;;;;9.53;98.53;99013.48;110015;1238;70746;-77
2023/03/11 00:23:34;;;;;;;9.90;7.90;;;;;;;9.55;98.24;98998.92;109884;1239;65354;-78
2023/03/11 00:26:03;;;;;;;9.30;8.20;;;;;;;9.44;99.26;98988.98;110081;1236;63537;-75
2023/03/11 00:28:32;;;;;;;11.20;8.90;;;;;;;9.45;99.82;98986.48;110100;1236;57211;-77
2023/03/11 00:31:03;;;;;;;12.30;8.40;;;;;;;9.40;99.88;98990.45;110005;1237;72451;-74
2023/03/11 00:33:32;;;;;;;11.50;9.20;;;;;;;9.35;99.85;98994.92;109863;1238;61994;-74
2023/03/11 00:36:01;;;;;;;13.30;9.30;;;;;;;9.25;98.96;99003.70;110224;1236;69664;-71
2023/03/11 00:38:30;;;;;;;13.80;11.10;;;;;;;9.05;98.37;99014.95;110234;1236;74783;-71
2023/03/11 00:41:00;;;;;;;13.30;10.90;;;;;;;8.91;98.31;99013.66;110281;1236;60765;-71
2023/03/11 00:43:31;;;;;;;;;;;;;;;8.86;98.95;99010.10;110296;1236;61703;-71
2023/03/11 00:46:00;;;;;;;13.90;11.30;;;;;;;8.78;99.90;99004.27;110138;1237;63370;-74
2023/03/11 00:48:29;;;;;;;14.30;11.70;;;;;;;8.75;99.94;99002.59;110158;1236;61621;-70
2023/03/11 00:50:58;;;;;;;13.60;11.80;;;;;;;8.70;100.00;98996.59;110078;1237;59295;-70
2023/03/11 00:53:27;;;;;;;13.70;11.10;;;;;;;8.67;100.00;98995.89;110070;1238;62459;-72
2023/03/11 00:55:56;;;;;;;15.60;11.80;;;;;;;8.65;100.00;98995.15;110261;1238;62955;-75
2023/03/11 00:58:27;;;;;;;16.20;11.70;;;;;;;8.59;100.00;98997.27;110171;1238;60795;-74
2023/03/11 01:00:57;;;;;;;17.70;12.30;;;;;;;8.59;100.00;98991.19;110198;1238;63375;-76
2023/03/11 01:03:26;;;;;;;15.10;12.00;;;;;;;8.63;100.00;98987.70;110216;1237;61749;-73
2023/03/11 01:05:55;;;;;;;16.10;11.40;;;;;;;8.66;100.00;98980.10;110193;1237;60129;-73
2023/03/11 01:08:25;;;;;;;14.40;12.20;;;;;;;8.68;100.00;98973.89;110313;1236;63273;-74
2023/03/11 01:10:55;;;;;;;15.10;12.70;;;;;;;8.69;100.00;98964.66;110168;1239;58026;-76
2023/03/11 01:13:26;;;;;;;17.60;11.50;;;;;;;8.74;100.00;98952.85;110196;1237;60780;-75
2023/03/11 01:15:56;;;;;;;16.90;11.50;;;;;;;8.79;100.00;98940.98;110068;1237;63239;-73
2023/03/11 01:18:25;;;;;;;16.20;12.20;;;;;;;8.80;100.00;98932.20;109984;1237;60901;-72
2023/03/11 01:20:54;;;;;;;18.60;13.10;;;;;;;8.81;100.00;98931.77;110096;1237;59991;-74
2023/03/11 01:23:23;;;;;;;14.50;12.00;;;;;;;8.76;100.00;98926.33;110200;1236;63908;-74
2023/03/11 01:25:52;;;;;;;17.70;13.10;;;;;;;8.73;100.00;98924.52;110317;1236;57184;-75
2023/03/11 01:28:21;;;;;;;16.10;12.80;;;;;;;8.77;100.00;98920.61;110162;1239;57562;-74
2023/03/11 01:30:51;;;;;;;17.20;13.00;;;;;;;8.77;100.00;98914.20;110210;1238;71592;-74
2023/03/11 01:33:21;;;;;;;15.80;12.70;;;;;;;8.78;100.00;98918.27;110221;1238;60858;-74
2023/03/11 01:35:50;;;;;;;16.10;13.00;;;;;;;8.80;100.00;98915.41;110225;1236;59231;-75
2023/03/11 01:38:19;;;;;;;16.90;13.10;;;;;;;8.82;100.00;98912.02;110170;1238;63288;-74
2023/03/11 01:40:51;;;;;;;14.30;12.50;;;;;;;8.81;100.00;98907.80;110144;1239;57166;-74
2023/03/11 01:43:40;;;;;;;15.60;12.60;;;;;;;8.81;100.00;98907.81;109982;1238;61091;-74
2023/03/11 01:46:48;;;;;;;16.90;13.60;;;;;;;8.84;100.00;98897.42;110152;1237;73986;-75
2023/03/11 01:49:18;;;;;;;17.70;13.70;;;;;;;8.83;100.00;98894.29;109899;1237;61451;-75
2023/03/11 01:51:55;;;;;;;19.40;13.40;;;;;;;8.81;100.00;98894.44;110142;1236;60657;-75
2023/03/11 01:54:32;;;;;;;18.30;13.70;;;;;;;8.81;100.00;98889.03;109937;1238;73837;-75
2023/03/11 01:57:05;;;;;;;19.00;14.10;;;;;;;8.84;100.00;98887.51;110125;1238;57124;-74
2023/03/11 01:59:39;;;;;;;;;;;;;;;8.86;100.00;98881.58;109947;1242;57671;-74
2023/03/11 02:02:51;;;;;;;17.30;12.90;;;;;;;8.86;100.00;98879.01;109927;1237;62177;-73
2023/03/11 02:05:22;;;;;;;15.90;13.00;;;;;;;8.92;100.00;98873.38;110218;1238;61653;-75
2023/03/11 02:07:54;;;;;;;17.00;13.40;;;;;;;8.98;100.00;98868.86;109936;1237;59156;-78
2023/03/11 02:10:24;;;;;;;;;;;;;;;8.95;100.00;98864.30;110165;1237;63264;-75
2023/03/11 02:12:55;;;;;;;18.00;13.80;;;;;;;8.96;100.00;98856.70;110103;1239;57791;-74
2023/03/11 02:15:25;;;;;;;16.50;14.20;;;;;;;8.91;100.00;98853.08;110180;1237;60928;-73
2023/03/11 02:17:55;;;;;;;16.70;14.40;;;;;;;8.98;100.00;98851.53;110062;1237;63628;-74
2023/03/11 02:20:44;;;;;;;16.10;14.10;;;;;;;9.03;100.00;98851.73;110164;1239;61638;-74
2023/03/11 02:23:14;;;;;;;17.60;14.70;;;;;;;9.09;99.24;98850.84;110071;1238;58965;-75
2023/03/11 02:26:05;;;;;;;19.60;16.40;;;;;;;9.01;99.88;98844.41;110126;1238;73794;-74
2023/03/11 02:28:36;;;;;;;21.90;16.40;;;;;;;9.02;100.00;98837.56;110138;1239;57444;-74
2023/03/11 02:31:06;;;;;;;20.50;18.10;;;;;;;9.01;100.00;98831.93;110054;1238;57968;-75
2023/03/11 02:33:36;;;;;;;22.90;18.90;;;;;;;8.97;100.00;98835.06;110132;1237;73476;-74
2023/03/11 02:36:06;;;;;;;22.30;19.50;;;;;;;9.01;100.00;98829.70;110101;1237;62512;-74
2023/03/11 02:38:35;;;;;;;24.60;20.90;;;;;;;9.01;100.00;98826.70;110128;1239;59226;-76
2023/03/11 02:41:05;;;;;;;24.80;22.20;;;;;;;8.99;100.00;98822.73;110130;1238;62487;-76
2023/03/11 02:43:42;;;;;;;25.50;22.10;;;;;;;8.98;100.00;98816.91;110039;1241;57552;-76
2023/03/11 02:46:13;;;;;;;27.80;22.50;;;;;;;9.03;100.00;98810.77;110042;1237;60339;-75
2023/03/11 02:48:42;;;;;;;25.40;21.60;;;;;;;9.04;100.00;98801.75;110020;1238;74069;-75
2023/03/11 02:51:12;;;;;;;25.10;21.90;;;;;;;9.09;100.00;98796.95;110030;1238;72171;-76
2023/03/11 02:53:52;;;;;;;28.30;25.20;;;;;;;9.12;100.00;98796.70;110148;1236;70873;-77
2023/03/11 02:56:21;;;;;;;28.60;25.50;;;;;;;9.11;100.00;98795.88;110064;1238;62837;-75
2023/03/11 02:58:50;;;;;;;28.50;25.50;;;;;;;9.09;100.00;98797.68;110088;1239;57754;-75
2023/03/11 03:01:21;;;;;;;32.60;26.40;;;;;;;9.14;100.00;98795.48;110111;1236;61100;-75
2023/03/11 03:03:50;;;;;;;28.40;24.90;;;;;;;9.16;100.00;98783.09;109867;1242;63371;-76
2023/03/11 03:06:19;;;;;;;31.00;25.80;;;;;;;9.20;100.00;98778.13;109976;1236;61598;-75
2023/03/11 03:08:49;;;;;;;29.00;25.90;;;;;;;9.23;100.00;98779.30;109976;1239;70592;-75
2023/03/11 03:11:17;;;;;;;29.20;25.30;;;;;;;9.26;100.00;98778.13;109937;1238;74206;-73
2023/03/11 03:13:46;;;;;;;27.90;23.80;;;;;;;9.29;100.00;98774.02;109913;1238;62430;-74
2023/03/11 03:16:16;;;;;;;28.60;23.30;;;;;;;9.28;100.00;98769.36;109810;1237;61582;-74
2023/03/11 03:18:45;;;;;;;27.50;24.60;;;;;;;9.26;100.00;98769.58;109932;1238;73473;-74
2023/03/11 03:21:14;;;;;;;30.30;24.80;;;;;;;9.33;100.00;98768.59;109897;1239;62602;-74
2023/03/11 03:23:43;;;;;;;26.20;22.60;;;;;;;9.37;100.00;98770.29;109680;1242;59060;-75
2023/03/11 03:26:13;;;;;;;26.30;22.60;;;;;;;9.43;100.00;98766.88;109910;1239;72035;-73
2023/03/11 03:28:43;;;;;;;26.20;22.50;;;;;;;9.44;100.00;98761.58;110045;1238;62326;-74
2023/03/11 03:31:12;;;;;;;29.70;23.10;;;;;;;9.50;100.00;98759.42;109825;1237;61433;-74
2023/03/11 03:33:41;;;;;;;25.40;22.30;;;;;;;9.51;100.00;98756.58;109713;1237;63561;-74
2023/03/11 03:36:13;;;;;;;25.80;21.30;;;;;;;9.47;100.00;98751.04;109920;1236;71369;-74
2023/03/11 03:38:45;;;;;;;28.60;21.60;;;;;;;9.56;100.00;98754.83;109893;1236;70955;-74
2023/03/11 03:41:15;;;;;;;22.80;19.60;;;;;;;9.66;100.00;98746.25;109786;1237;73783;-74
2023/03/11 03:43:44;;;;;;;26.60;19.80;;;;;;;9.70;100.00;98744.08;109942;1239;62484;-75
2023/03/11 03:46:13;;;;;;;26.90;18.70;;;;;;;9.73;100.00;98747.05;109965;1238;57230;-74
2023/03/11 03:48:45;;;;;;;24.60;18.30;;;;;;;9.78;100.00;98749.70;109940;1238;63916;-74
2023/03/11 03:51:14;;;;;;;26.80;18.00;;;;;;;9.77;100.00;98746.96;109636;1242;62642;-75
2023/03/11 03:53:58;;;;;;;22.30;17.20;;;;;;;9.78;100.00;98748.57;109949;1237;69573;-75
2023/03/11 03:56:27;;;;;;;23.20;18.50;;;;;;;9.75;100.00;98750.20;109930;1238;72859;-75
2023/03/11 03:58:55;;;;;;;22.80;17.70;;;;;;;9.84;100.00;98744.59;109909;1239;63222;-75
2023/03/11 04:01:26;;;;;;;21.90;17.60;;;;;;;9.93;100.00;98741.05;109988;1239;58110;-75
2023/03/11 04:03:56;;;;;;;28.40;19.30;;;;;;;10.01;100.00;98737.88;109744;1237;73544;-74
2023/03/11 04:06:26;;;;;;;26.10;18.10;;;;;;;10.02;100.00;98737.85;109703;1238;366302;-72
2023/03/11 04:09:01;;;;;;;25.70;17.70;;;;;;;9.90;100.00;98726.05;109727;1238;59710;-72
2023/03/11 04:11:32;;;;;;;24.70;17.70;;;;;;;9.92;100.00;98730.17;109883;1238;73140;-75
2023/03/11 04:14:03;;;;;;;23.60;17.50;;;;;;;9.98;100.00;98734.27;109876;1239;62610;-72
2023/03/11 04:16:34;;;;;;;25.90;17.30;;;;;;;10.13;99.98;98732.75;109797;1236;61573;-72
2023/03/11 04:19:06;;;;;;;22.30;17.80;;;;;;;10.09;100.00;98727.41;110127;1238;63378;-73
2023/03/11 04:21:35;;;;;;;26.60;18.50;;;;;;;10.16;100.00;98723.11;109778;1236;71430;-73
2023/03/11 04:24:05;;;;;;;25.40;18.00;;;;;;;10.23;100.00;98717.54;109857;1236;71740;-74
2023/03/11 04:26:36;;;;;;;25.70;17.20;;;;;;;10.22;100.00;98721.61;110102;1238;74239;-77
2023/03/11 04:29:06;;;;;;;24.90;17.50;;;;;;;10.19;100.00;98722.79;109915;1241;62306;-76
2023/03/11 04:31:39;;;;;;;25.00;18.40;;;;;;;10.17;100.00;98718.39;110113;1238;57673;-77
2023/03/11 04:34:08;;;;;;;23.90;18.20;;;;;;;10.21;100.00;98715.23;110063;1238;72222;-79
2023/03/11 04:36:37;;;;;;;23.40;18.30;;;;;;;10.23;100.00;98705.45;110054;1239;61387;-77
2023/03/11 04:39:06;;;;;;;25.10;18.90;;;;;;;10.23;100.00;98692.98;110097;1239;59367;-75
2023/03/11 04:41:39;;;;;;;21.20;16.70;;;;;;;10.29;100.00;98686.13;110017;1237;73904;-77
2023/03/11 04:44:08;;;;;;;25.60;18.30;;;;;;;10.32;99.99;98679.20;110101;1239;63131;-76
2023/03/11 04:46:37;;;;;;;23.50;18.10;;;;;;;10.38;99.77;98670.94;110135;1239;57275;-76
2023/03/11 04:49:08;;;;;;;23.30;17.50;;;;;;;10.34;99.89;98666.75;110020;1241;62131;-78
2023/03/11 04:51:38;;;;;;;24.00;18.30;;;;;;;10.41;99.84;98662.27;110015;1240;62121;-76
2023/03/11 04:54:07;;;;;;;22.80;17.80;;;;;;;10.42;99.55;98657.30;110007;1237;69659;-76
2023/03/11 04:56:36;;;;;;;23.70;17.70;;;;;;;10.39;99.81;98649.20;109877;1242;62848;-76
2023/03/11 04:59:05;;;;;;;28.00;17.40;;;;;;;10.50;99.45;98653.19;110106;1239;57172;-76
2023/03/11 05:01:35;;;;;;;26.20;18.00;;;;;;;10.45;99.48;98654.56;110024;1241;57474;-77
2023/03/11 05:04:05;;;;;;;23.50;16.60;;;;;;;10.40;99.96;98654.91;110180;1239;62903;-76
2023/03/11 05:06:34;;;;;;;21.00;16.00;;;;;;;10.36;99.97;98648.48;110175;1238;72099;-77
2023/03/11 05:09:04;;;;;;;21.60;15.80;;;;;;;10.42;99.72;98643.71;110135;1237;61332;-76
2023/03/11 05:11:35;;;;;;;22.80;15.90;;;;;;;10.47;98.91;98639.11;110116;1238;72816;-76
2023/03/11 05:14:04;;;;;;;21.50;16.80;;;;;;;10.54;98.87;98638.59;110232;1238;61894;-76
2023/03/11 05:16:32;;;;;;;24.80;16.30;;;;;;;10.57;98.42;98636.68;110103;1238;61270;-76
2023/03/11 05:19:29;;;;;;;21.70;16.70;;;;;;;10.61;99.02;98631.30;109993;1237;73994;-76
2023/03/11 05:21:50;;;;;;;22.40;16.80;;;;;;;10.65;99.22;98626.11;110083;1239;72329;-77
2023/03/11 05:24:20;;;;;;;22.50;16.60;;;;;;;10.72;98.84;98624.49;110140;1236;71192;-78
2023/03/11 05:26:49;;;;;;;25.00;17.10;;;;;;;10.77;98.36;98622.27;110096;1236;73290;-74
2023/03/11 05:29:18;;;;;;;25.30;16.30;;;;;;;10.77;98.08;98615.85;110104;1236;62483;-74
2023/03/11 05:31:47;;;;;;;24.30;16.50;;;;;;;10.78;97.30;98608.59;110158;1239;57682;-74
2023/03/11 05:34:17;;;;;;;24.20;16.70;;;;;;;10.79;96.68;98606.73;109945;1242;73564;-73
2023/03/11 05:36:46;;;;;;;25.30;19.50;;;;;;;10.91;96.96;98609.83;110111;1237;72126;-72
2023/03/11 05:39:15;;;;;;;25.30;19.40;;;;;;;10.99;95.97;98609.59;110235;1242;60571;-73
2023/03/11 05:41:44;;;;;;;33.10;20.60;;;;;;;11.00;96.79;98602.70;110257;1241;62755;-74
2023/03/11 05:44:13;;;;;;;27.40;20.20;;;;;;;11.07;95.96;98595.69;110155;1238;62842;-77
2023/03/11 05:46:42;;;;;;;28.00;20.40;;;;;;;11.01;96.42;98595.33;110267;1239;60793;-76
2023/03/11 05:49:11;;;;;;;30.70;21.60;;;;;;;10.98;96.94;98591.27;110164;1239;62727;-75
2023/03/11 05:51:40;;;;;;;27.20;19.40;;;;;;;11.03;95.95;98588.66;110186;1238;60819;-76
2023/03/11 05:54:13;;;;;;;33.80;20.60;;;;;;;11.02;96.27;98582.64;110047;1241;59207;-76
2023/03/11 05:56:46;;;;;;;27.50;20.00;;;;;;;11.02;96.34;98576.17;110088;1239;72968;-76
2023/03/11 05:59:16;;;;;;;28.80;20.20;;;;;;;11.01;95.93;98581.88;109937;1241;63356;-76
2023/03/11 06:01:47;;;;;;;27.20;17.90;;;;;;;11.02;95.59;98588.73;109997;1242;57853;-75
2023/03/11 06:04:17;;;;;;;27.50;19.30;;;;;;;10.89;95.93;98585.51;110031;1235;74193;-76
2023/03/11 06:06:46;;;;;;;26.50;19.00;;;;;;;10.93;96.57;98582.04;110047;1235;71759;-73
2023/03/11 06:09:17;;;;;;;25.40;18.30;;;;;;;10.97;96.15;98583.58;110277;1235;70859;-75
2023/03/11 06:11:46;;;;;;;28.30;18.20;;;;;;;10.97;95.79;98579.03;110082;1235;74127;-75
2023/03/11 06:14:16;;;;;;;26.00;19.30;;;;;;;10.95;95.83;98577.46;110073;1235;64199;-74
2023/03/11 06:16:46;;;;;;;32.10;19.10;;;;;;;10.98;96.54;98579.55;110119;1235;57640;-75
2023/03/11 06:19:15;;;;;;;26.80;18.40;;;;;;;10.99;95.87;98582.26;110155;1235;63144;-76
2023/03/11 06:21:47;;;;;;;26.30;18.80;;;;;;;11.15;95.29;98578.75;110198;1235;71625;-76
2023/03/11 06:24:18;;;;;;;28.20;20.10;;;;;;;11.26;94.24;98570.17;110152;1235;60803;-77
2023/03/11 06:26:51;;;;;;;30.50;18.80;;;;;;;11.27;94.11;98567.75;109938;1235;73489;-75
2023/03/11 06:29:23;;;;;;;25.90;17.50;;;;;;;11.24;94.40;98570.70;110091;1235;57011;-77
2023/03/11 06:31:52;;;;;;;25.10;18.00;;;;;;;11.23;94.06;98566.45;110046;1235;59877;-77
2023/03/11 06:34:22;;;;;;;20.60;15.40;;;;;;;11.24;94.37;98566.28;110251;1235;63999;-76
2023/03/11 06:36:53;;;;;;;23.20;14.70;;;;;;;11.32;92.83;98559.22;109967;1235;71739;-78
2023/03/11 06:39:22;;;;;;;19.40;14.40;;;;;;;11.35;92.71;98562.46;110098;1237;59708;-74
2023/03/11 06:41:51;;;;;;;20.30;14.50;;;;;;;11.24;93.66;98560.05;110222;1236;62634;-80
2023/03/11 06:44:20;;;;;;;19.70;13.50;;;;;;;11.32;92.93;98554.11;110217;1239;57501;-80
2023/03/11 06:46:49;;;;;;;16.80;11.20;;;;;;;11.39;92.29;98545.17;110198;1235;57783;-80
2023/03/11 06:49:18;;;;;;;20.50;13.30;;;;;;;11.40;92.04;98543.83;110315;1238;63019;-80
2023/03/11 06:51:47;;;;;;;19.10;13.10;;;;;;;11.44;92.53;98548.86;110000;1241;61673;-80
2023/03/11 06:54:16;;;;;;;20.00;12.60;;;;;;;11.45;92.26;98544.14;110258;1235;60064;-83
2023/03/11 06:56:45;;;;;;;19.40;14.00;;;;;;;11.59;91.60;98539.28;110039;1235;62759;-80
2023/03/11 06:59:14;;;;;;;20.40;12.50;;;;;;;11.66;91.35;98536.77;110225;1239;59203;-84
2023/03/11 07:01:44;;;;;;;19.90;12.70;;;;;;;11.81;91.28;98535.46;110180;1235;61207;-81
2023/03/11 07:04:14;;;;;;;19.80;13.60;;;;;;;11.94;90.82;98534.05;110054;1235;73315;-80
2023/03/11 07:06:43;;;;;;;28.50;14.30;;;;;;;12.08;89.63;98534.88;110067;1235;72496;-82
2023/03/11 07:09:16;;;;;;;21.10;12.80;;;;;;;12.06;89.54;98531.94;110117;1235;59458;-77
2023/03/11 07:11:46;;;;;;;17.70;12.20;;;;;;;12.11;88.92;98528.08;109859;1235;73805;-76
2023/03/11 07:14:19;;;;;;;19.10;12.10;;;;;;;12.08;88.57;98523.60;110078;1237;57655;-76
2023/03/11 07:16:51;;;;;;;18.30;12.30;;;;;;;12.17;87.87;98526.54;110054;1238;61231;-76
2023/03/11 07:19:29;;;;;;;19.00;11.50;;;;;;;12.29;87.28;98523.93;110063;1235;73184;-76
2023/03/11 07:21:58;;;;;;;18.50;11.70;;;;;;;12.29;87.13;98516.48;110175;1235;62152;-81
2023/03/11 07:24:28;;;;;;;15.90;11.50;;;;;;;12.31;86.92;98515.74;110167;1235;59469;-75
2023/03/11 07:26:57;;;;;;;24.80;14.70;;;;;;;12.33;86.74;98514.98;110188;1235;73738;-80
2023/03/11 07:29:26;;;;;;;17.20;11.80;;;;;;;12.32;86.70;98510.21;110184;1238;63176;-78
2023/03/11 07:31:55;;;;;;;23.60;11.80;;;;;;;12.34;86.13;98502.57;110320;1235;61756;-74
2023/03/11 07:34:24;;;;;;;17.80;11.50;;;;;;;12.33;86.26;98499.75;110264;1235;73937;-75
2023/03/11 07:36:53;;;;;;;20.40;12.10;;;;;;;12.46;85.98;98500.84;110180;1235;72502;-75
2023/03/11 07:39:22;;;;;;;19.50;11.50;;;;;;;12.49;85.42;98497.94;109840;1235;71188;-74
2023/03/11 07:41:51;;;;;;;18.30;11.30;;;;;;;12.52;85.26;98491.29;110305;1238;74265;-76
2023/03/11 07:44:19;;;;;;;26.10;13.90;;;;;;;12.60;84.97;98486.05;110199;1235;62735;-83
2023/03/11 07:46:48;;;;;;;21.20;11.40;;;;;;;12.70;85.33;98485.50;110339;1235;57846;-82
2023/03/11 07:49:17;;;;;;;21.50;11.50;;;;;;;12.64;84.39;98482.14;110147;1235;73687;-84
2023/03/11 07:51:46;;;;;;;20.60;11.70;;;;;;;12.77;84.37;98480.04;110281;1235;61605;-83
2023/03/11 07:54:15;;;;;;;20.20;12.20;;;;;;;12.87;83.81;98476.00;110329;1235;59964;-83
2023/03/11 07:56:44;;;;;;;22.30;11.60;;;;;;;13.02;83.37;98471.45;110216;1235;72557;-78
2023/03/11 07:59:13;;;;;;;19.40;11.40;;;;;;;13.17;82.48;98464.48;110310;1237;61681;-75
2023/03/11 08:01:45;;;;;;;23.00;11.10;;;;;;;13.25;81.31;98465.05;110349;1235;61514;-78
2023/03/11 08:04:15;;;;;;;;;;;;;;;13.39;81.08;98466.89;110327;1235;74715;-76
2023/03/11 08:06:46;;;;;;;23.10;10.10;;;;;;;13.69;80.96;98464.29;110297;1235;62033;-77
2023/03/11 08:09:15;;;;;;;17.30;10.10;;;;;;;13.68;79.22;98463.22;109973;1235;70543;-77
2023/03/11 08:11:44;;;;;;;21.50;11.00;;;;;;;13.90;78.63;98459.41;110204;1235;73053;-77
2023/03/11 08:14:12;;;;;;;19.50;10.20;;;;;;;13.99;78.11;98449.36;110284;1238;57593;-78
2023/03/11 08:16:41;;;;;;;13.80;9.60;;;;;;;13.96;77.11;98445.84;110312;1235;57681;-78
2023/03/11 08:19:12;;;;;;;19.20;10.30;;;;;;;13.99;76.59;98444.65;110073;1236;72635;-77
2023/03/11 08:21:41;;;;;;;14.80;10.30;;;;;;;13.97;77.03;98446.94;110181;1235;61061;-79
2023/03/11 08:24:12;;;;;;;22.40;10.60;;;;;;;13.82;77.39;98447.35;110211;1237;60023;-76
2023/03/11 08:26:41;;;;;;;17.50;10.90;;;;;;;14.14;76.87;98448.70;110109;1237;63344;-79
2023/03/11 08:29:10;;;;;;;19.00;10.70;;;;;;;14.21;75.75;98447.02;110233;1238;57710;-78
2023/03/11 08:31:39;;;;;;;22.10;11.40;;;;;;;14.13;76.04;98445.55;110288;1238;57253;-77
2023/03/11 08:34:10;;;;;;;19.70;11.30;;;;;;;14.25;75.44;98445.33;110180;1235;62146;-80
2023/03/11 08:36:39;;;;;;;21.40;11.50;;;;;;;14.30;74.92;98443.95;109875;1237;62311;-84
2023/03/11 08:39:08;;;;;;;17.70;10.90;;;;;;;14.28;74.98;98436.66;110165;1236;59966;-81
2023/03/11 08:41:37;;;;;;;19.70;10.60;;;;;;;14.29;74.19;98431.98;110153;1238;62433;-80
2023/03/11 08:44:06;;;;;;;17.00;10.70;;;;;;;14.19;74.82;98430.41;109964;1239;60462;-82
2023/03/11 08:46:37;;;;;;;19.90;10.70;;;;;;;14.05;74.78;98429.09;109941;1239;61489;-81
2023/03/11 08:49:06;;;;;;;15.50;10.20;;;;;;;14.09;74.98;98429.35;109894;1238;63556;-82
2023/03/11 08:51:36;;;;;;;20.40;11.20;;;;;;;14.08;74.58;98429.15;110103;1235;62517;-77
2023/03/11 08:54:05;;;;;;;19.30;10.40;;;;;;;14.26;74.18;98424.00;110213;1235;70461;-78
2023/03/11 08:56:34;;;;;;;16.70;10.00;;;;;;;14.21;74.22;98419.73;110085;1235;62870;-80
2023/03/11 08:59:03;;;;;;;17.90;9.90;;;;;;;14.26;73.75;98420.05;110078;1239;59380;-80
2023/03/11 09:01:32;;;;;;;18.90;10.10;;;;;;;14.48;73.61;98421.48;110123;1235;61710;-79
2023/03/11 09:04:01;;;;;;;20.30;10.80;;;;;;;14.52;73.42;98421.58;110135;1235;72876;-79
2023/03/11 09:06:30;;;;;;;18.40;11.30;;;;;;;14.18;73.61;98420.35;110168;1238;71969;-80
2023/03/11 09:08:59;;;;;;;15.30;10.30;;;;;;;14.37;73.22;98418.31;110130;1236;70144;-79
2023/03/11 09:11:28;;;;;;;21.10;11.20;;;;;;;14.26;73.52;98422.71;109856;1241;65139;-80
2023/03/11 09:13:57;;;;;;;21.60;10.70;;;;;;;14.36;73.52;98427.39;110220;1238;60506;-81
2023/03/11 09:16:25;;;;;;;19.10;11.50;;;;;;;14.39;73.23;98423.87;109985;1238;60740;-78
2023/03/11 09:18:54;;;;;;;15.00;10.50;;;;;;;14.28;73.70;98420.18;110297;1236;63520;-79
2023/03/11 09:21:23;;;;;;;17.10;9.90;;;;;;;14.24;73.36;98414.38;110195;1238;61600;-81
2023/03/11 09:23:52;;;;;;;22.00;11.60;;;;;;;14.15;73.46;98415.52;110341;1238;59761;-78
2023/03/11 09:26:21;;;;;;;22.30;12.00;;;;;;;14.21;73.10;98416.05;110275;1239;70257;-80
2023/03/11 09:28:50;;;;;;;17.60;10.00;;;;;;;14.24;73.62;98424.69;110297;1238;61781;-79
2023/03/11 09:31:18;;;;;;;14.80;9.70;;;;;;;14.41;72.98;98423.27;110311;1236;60873;-81
2023/03/11 09:33:48;;;;;;;15.70;9.50;;;;;;;14.74;72.09;98428.98;110338;1238;63021;-81
2023/03/11 09:36:20;;;;;;;14.40;8.50;;;;;;;15.02;71.17;98431.29;109956;1238;72374;-79
2023/03/11 09:38:49;;;;;;;14.10;8.60;;;;;;;15.19;69.64;98432.30;110115;1238;69696;-79
2023/03/11 09:41:26;;;;;;;16.70;8.80;;;;;;;15.04;69.85;98430.48;110086;1238;73593;-80
2023/03/11 09:44:36;;;;;;;25.60;13.60;;;;;;;15.05;69.42;98429.73;110364;1238;60884;-81
2023/03/11 09:47:22;;;;;;;17.70;9.20;;;;;;;15.16;69.61;98427.55;110155;1237;57723;-76
2023/03/11 09:50:29;;;;;;;15.80;8.40;;;;;;;15.25;69.00;98425.02;110138;1235;64208;-81
2023/03/11 09:53:19;;;;;;;14.60;8.20;;;;;;;15.43;68.31;98421.68;110402;1235;70031;-81
2023/03/11 09:56:05;;;;;;;12.80;8.60;;;;;;;15.29;68.39;98415.52;110390;1235;59804;-80
2023/03/11 09:59:07;;;;;;;18.60;8.80;;;;;;;15.53;68.41;98419.86;110007;1237;62504;-86
2023/03/11 10:01:42;;;;;;;18.20;9.90;;;;;;;15.43;68.39;98416.70;110208;1237;61276;-83
2023/03/11 10:04:40;;;;;;;13.70;8.80;;;;;;;15.34;69.12;98414.33;110006;1235;57631;-83
2023/03/11 10:07:20;;;;;;;15.20;9.40;;;;;;;15.42;69.14;98412.60;110156;1235;73510;-83
2023/03/11 10:09:57;;;;;;;20.10;9.90;;;;;;;15.58;69.29;98414.16;110045;1238;62050;-81
2023/03/11 10:13:17;;;;;;;19.10;9.50;;;;;;;15.82;68.59;98419.63;110255;1235;69052;-82
2023/03/11 10:16:34;;;;;;;10.80;7.90;;;;;;;16.16;66.81;98425.13;110124;1235;73756;-82
2023/03/11 10:19:40;;;;;;;14.40;8.60;;;;;;;15.93;67.07;98417.55;110225;1238;58081;-81
2023/03/11 10:22:26;;;;;;;12.70;7.40;;;;;;;16.02;67.16;98412.40;110190;1235;57769;-84
2023/03/11 10:25:01;;;;;;;19.10;9.30;;;;;;;16.08;66.86;98414.40;110147;1235;73439;-79
2023/03/11 10:27:50;;;;;;;16.50;9.40;;;;;;;16.05;67.35;98408.52;110233;1238;62306;-82
2023/03/11 10:30:28;;;;;;;16.10;9.60;;;;;;;15.98;67.81;98406.45;110244;1237;70470;-76
2023/03/11 10:33:13;;;;;;;15.10;9.80;;;;;;;15.97;68.42;98408.27;110064;1240;63631;-79
2023/03/11 10:35:45;;;;;;;14.20;9.30;;;;;;;15.92;68.57;98404.89;110344;1238;59459;-79
2023/03/11 10:38:22;;;;;;;12.70;9.10;;;;;;;15.69;70.12;98401.48;110228;1235;61950;-78
2023/03/11 10:40:57;;;;;;;12.90;9.00;;;;;;;15.57;70.19;98399.98;110058;1242;64184;-76
2023/03/11 10:43:36;;;;;;;15.20;10.00;;;;;;;15.70;70.95;98393.96;110296;1235;63038;-75
2023/03/11 10:46:16;;;;;;;13.80;9.60;;;;;;;15.93;70.42;98390.04;110267;1239;59867;-70
2023/03/11 10:48:46;;;;;;;14.70;10.10;;;;;;;15.78;71.24;98387.06;110008;1238;73964;-74
2023/03/11 10:51:25;;;;;;;12.20;9.20;;;;;;;15.84;71.33;98380.34;109893;1237;60988;-76
2023/03/11 10:53:58;;;;;;;13.10;9.10;;;;;;;15.34;73.09;98376.37;109910;1235;61774;-74
2023/03/11 10:56:40;;;;;;;12.40;9.50;;;;;;;15.23;74.06;98373.57;110038;1235;73787;-73
2023/03/11 10:59:49;;;;;;;14.10;9.50;;;;;;;15.15;74.11;98371.92;109974;1235;72565;-80
2023/03/11 11:02:30;;;;;;;13.60;8.90;;;;;;;15.20;74.67;98366.80;109797;1235;59828;-75
2023/03/11 11:05:17;;;;;;;16.60;9.90;;;;;;;15.54;73.94;98360.19;110159;1238;63259;-83
2023/03/11 11:07:49;;;;;;;12.10;9.30;;;;;;;15.72;73.15;98350.92;109911;1239;58298;-82
2023/03/11 11:10:24;;;;;;;13.60;8.40;;;;;;;15.68;73.09;98343.15;110039;1235;61023;-78
2023/03/11 11:12:58;;;;;;;16.50;9.10;;;;;;;15.77;71.33;98343.23;109994;1238;74834;-80
2023/03/11 11:15:36;;;;;;;14.60;9.40;;;;;;;15.50;71.93;98339.95;110131;1238;72547;-80
2023/03/11 11:18:45;;;;;;;13.20;8.90;;;;;;;15.60;71.14;98336.25;109882;1238;59579;-80
2023/03/11 11:21:39;;;;;;;13.30;9.40;;;;;;;15.81;71.01;98329.75;109907;1236;73862;-78
2023/03/11 11:24:28;;;;;;;14.40;9.10;;;;;;;15.74;70.52;98322.46;110030;1237;58361;-77
2023/03/11 11:27:15;;;;;;;11.30;8.40;;;;;;;15.86;70.46;98319.96;109890;1241;57690;-79
2023/03/11 11:29:45;;;;;;;13.80;8.30;;;;;;;15.92;69.35;98316.27;110034;1238;73769;-70
2023/03/11 11:32:15;;;;;;;14.00;8.80;;;;;;;15.92;69.01;98314.21;109856;1242;62274;-77
2023/03/11 11:35:15;;;;;;;14.80;8.40;;;;;;;16.06;69.22;98309.67;109890;1237;61566;-77
2023/03/11 11:38:01;;;;;;;13.50;8.40;;;;;;;15.96;70.07;98308.30;109965;1239;63887;-76